sensor_id;sensor_type;location;lat;lon;timestamp;temperature;humidity
50570;DHT22;36525;49.398;7.614;2024-01-25T00:01:47;8.80;99.90
50570;DHT22;36525;49.398;7.614;2024-01-25T00:04:14;8.90;99.90
50570;DHT22;36525;49.398;7.614;2024-01-25T00:06:41;8.80;99.90
50570;DHT22;36525;49.398;7.614;2024-01-25T00:09:09;8.80;99.90
50570;DHT22;36525;49.398;7.614;2024-01-25T00:11:36;8.80;99.90
50570;DHT22;36525;49.398;7.614;2024-01-25T00:14:03;8.80;99.90
50570;DHT22;36525;49.398;7.614;2024-01-25T00:16:31;8.70;99.90
50570;DHT22;36525;49.398;7.614;2024-01-25T00:18:58;8.80;99.90
50570;DHT22;36525;49.398;7.614;2024-01-25T00:21:25;8.80;99.90
50570;DHT22;36525;49.398;7.614;2024-01-25T00:23:51;8.80;99.90
50570;DHT22;36525;49.398;7.614;2024-01-25T00:26:18;8.70;99.90
50570;DHT22;36525;49.398;7.614;2024-01-25T00:28:45;8.70;99.90
50570;DHT22;36525;49.398;7.614;2024-01-25T00:31:12;8.80;99.90
50570;DHT22;36525;49.398;7.614;2024-01-25T00:33:38;8.70;99.90
50570;DHT22;36525;49.398;7.614;2024-01-25T00:36:06;8.70;99.90
50570;DHT22;36525;49.398;7.614;2024-01-25T00:38:33;8.70;99.90
50570;DHT22;36525;49.398;7.614;2024-01-25T00:41:01;8.70;99.90
50570;DHT22;36525;49.398;7.614;2024-01-25T00:43:28;8.70;99.90
50570;DHT22;36525;49.398;7.614;2024-01-25T00:45:55;8.80;99.90
50570;DHT22;36525;49.398;7.614;2024-01-25T00:48:22;8.80;99.90
50570;DHT22;36525;49.398;7.614;2024-01-25T00:50:50;8.80;99.90
50570;DHT22;36525;49.398;7.614;2024-01-25T00:53:18;8.60;99.90
50570;DHT22;36525;49.398;7.614;2024-01-25T00:55:45;8.70;99.90
50570;DHT22;36525;49.398;7.614;2024-01-25T00:58:12;8.70;99.90
50570;DHT22;36525;49.398;7.614;2024-01-25T01:00:39;8.70;99.90
50570;DHT22;36525;49.398;7.614;2024-01-25T01:03:06;8.70;99.90
50570;DHT22;36525;49.398;7.614;2024-01-25T01:05:34;8.70;99.90
50570;DHT22;36525;49.398;7.614;2024-01-25T01:08:01;8.70;99.90
50570;DHT22;36525;49.398;7.614;2024-01-25T01:10:29;8.70;99.90
50570;DHT22;36525;49.398;7.614;2024-01-25T01:12:55;8.70;99.90
50570;DHT22;36525;49.398;7.614;2024-01-25T01:15:22;8.70;99.90
50570;DHT22;36525;49.398;7.614;2024-01-25T01:17:49;8.70;99.90
50570;DHT22;36525;49.398;7.614;2024-01-25T01:20:16;8.60;99.90
50570;DHT22;36525;49.398;7.614;2024-01-25T01:22:43;8.60;99.90
50570;DHT22;36525;49.398;7.614;2024-01-25T01:25:10;8.60;99.90
50570;DHT22;36525;49.398;7.614;2024-01-25T01:27:37;8.60;99.90
50570;DHT22;36525;49.398;7.614;2024-01-25T01:30:04;8.60;99.90
50570;DHT22;36525;49.398;7.614;2024-01-25T01:32:34;8.60;99.90
50570;DHT22;36525;49.398;7.614;2024-01-25T01:35:01;8.60;99.90
50570;DHT22;36525;49.398;7.614;2024-01-25T01:37:29;8.50;99.90
50570;DHT22;36525;49.398;7.614;2024-01-25T01:39:56;8.40;99.90
50570;DHT22;36525;49.398;7.614;2024-01-25T01:42:24;8.50;99.90
50570;DHT22;36525;49.398;7.614;2024-01-25T01:44:51;8.40;99.90
50570;DHT22;36525;49.398;7.614;2024-01-25T01:47:19;8.40;99.90
50570;DHT22;36525;49.398;7.614;2024-01-25T01:49:46;8.40;99.90
50570;DHT22;36525;49.398;7.614;2024-01-25T01:52:14;8.40;99.90
50570;DHT22;36525;49.398;7.614;2024-01-25T01:54:42;8.40;99.90
50570;DHT22;36525;49.398;7.614;2024-01-25T01:57:09;8.30;99.90
50570;DHT22;36525;49.398;7.614;2024-01-25T01:59:37;8.40;99.90
50570;DHT22;36525;49.398;7.614;2024-01-25T02:02:04;8.30;99.90
50570;DHT22;36525;49.398;7.614;2024-01-25T02:04:30;8.30;99.90
50570;DHT22;36525;49.398;7.614;2024-01-25T02:06:57;8.30;99.90
50570;DHT22;36525;49.398;7.614;2024-01-25T02:09:25;8.30;99.90
50570;DHT22;36525;49.398;7.614;2024-01-25T02:12:01;8.30;99.90
50570;DHT22;36525;49.398;7.614;2024-01-25T02:14:30;8.30;99.90
50570;DHT22;36525;49.398;7.614;2024-01-25T02:16:57;8.30;99.90
50570;DHT22;36525;49.398;7.614;2024-01-25T02:19:24;8.30;99.90
50570;DHT22;36525;49.398;7.614;2024-01-25T02:21:51;8.20;99.90
50570;DHT22;36525;49.398;7.614;2024-01-25T02:24:20;8.20;99.90
50570;DHT22;36525;49.398;7.614;2024-01-25T02:26:47;8.20;99.90
50570;DHT22;36525;49.398;7.614;2024-01-25T02:29:15;8.20;99.90
50570;DHT22;36525;49.398;7.614;2024-01-25T02:31:42;8.10;99.90
50570;DHT22;36525;49.398;7.614;2024-01-25T02:34:09;8.10;99.90
50570;DHT22;36525;49.398;7.614;2024-01-25T02:36:36;8.10;99.90
50570;DHT22;36525;49.398;7.614;2024-01-25T02:39:04;8.00;99.90
50570;DHT22;36525;49.398;7.614;2024-01-25T02:41:31;8.00;99.90
50570;DHT22;36525;49.398;7.614;2024-01-25T02:43:59;8.10;99.90
50570;DHT22;36525;49.398;7.614;2024-01-25T02:46:27;8.10;99.90
50570;DHT22;36525;49.398;7.614;2024-01-25T02:48:54;8.10;99.90
50570;DHT22;36525;49.398;7.614;2024-01-25T02:51:21;8.10;99.90
50570;DHT22;36525;49.398;7.614;2024-01-25T02:53:48;8.10;99.90
50570;DHT22;36525;49.398;7.614;2024-01-25T02:56:16;8.10;99.90
50570;DHT22;36525;49.398;7.614;2024-01-25T02:58:42;8.10;99.90
50570;DHT22;36525;49.398;7.614;2024-01-25T03:01:09;8.10;99.90
50570;DHT22;36525;49.398;7.614;2024-01-25T03:03:36;8.00;99.90
50570;DHT22;36525;49.398;7.614;2024-01-25T03:06:05;8.10;99.90
50570;DHT22;36525;49.398;7.614;2024-01-25T03:08:32;8.10;99.90
50570;DHT22;36525;49.398;7.614;2024-01-25T03:10:59;8.10;99.90
50570;DHT22;36525;49.398;7.614;2024-01-25T03:13:26;8.10;99.90
50570;DHT22;36525;49.398;7.614;2024-01-25T03:15:53;8.10;99.90
50570;DHT22;36525;49.398;7.614;2024-01-25T03:18:20;8.10;99.90
50570;DHT22;36525;49.398;7.614;2024-01-25T03:20:47;8.10;99.90
50570;DHT22;36525;49.398;7.614;2024-01-25T03:23:17;8.10;99.90
50570;DHT22;36525;49.398;7.614;2024-01-25T03:25:44;8.10;99.90
50570;DHT22;36525;49.398;7.614;2024-01-25T03:28:11;8.00;99.90
50570;DHT22;36525;49.398;7.614;2024-01-25T03:30:40;8.00;99.90
50570;DHT22;36525;49.398;7.614;2024-01-25T03:33:07;7.90;99.90
50570;DHT22;36525;49.398;7.614;2024-01-25T03:35:34;7.90;99.90
50570;DHT22;36525;49.398;7.614;2024-01-25T03:38:01;7.90;99.90
50570;DHT22;36525;49.398;7.614;2024-01-25T03:40:28;7.90;99.90
50570;DHT22;36525;49.398;7.614;2024-01-25T03:42:55;7.90;99.90
50570;DHT22;36525;49.398;7.614;2024-01-25T03:45:43;7.90;99.90
50570;DHT22;36525;49.398;7.614;2024-01-25T03:48:10;7.90;99.90
50570;DHT22;36525;49.398;7.614;2024-01-25T03:50:36;7.90;99.90
50570;DHT22;36525;49.398;7.614;2024-01-25T03:53:04;7.90;99.90
50570;DHT22;36525;49.398;7.614;2024-01-25T03:55:33;7.80;99.90
50570;DHT22;36525;49.398;7.614;2024-01-25T03:57:59;7.80;99.90
50570;DHT22;36525;49.398;7.614;2024-01-25T04:00:28;7.80;99.90
50570;DHT22;36525;49.398;7.614;2024-01-25T04:02:55;7.80;99.90
50570;DHT22;36525;49.398;7.614;2024-01-25T04:05:22;7.70;99.90
50570;DHT22;36525;49.398;7.614;2024-01-25T04:07:49;7.80;99.90
50570;DHT22;36525;49.398;7.614;2024-01-25T04:10:16;7.80;99.90
50570;DHT22;36525;49.398;7.614;2024-01-25T04:12:43;7.70;99.90
50570;DHT22;36525;49.398;7.614;2024-01-25T04:15:10;7.70;99.90
50570;DHT22;36525;49.398;7.614;2024-01-25T04:17:37;7.70;99.90
50570;DHT22;36525;49.398;7.614;2024-01-25T04:20:04;7.70;99.90
50570;DHT22;36525;49.398;7.614;2024-01-25T04:22:31;7.70;99.90
50570;DHT22;36525;49.398;7.614;2024-01-25T04:24:58;7.60;99.90
50570;DHT22;36525;49.398;7.614;2024-01-25T04:27:25;7.60;99.90
50570;DHT22;36525;49.398;7.614;2024-01-25T04:29:52;7.60;99.90
50570;DHT22;36525;49.398;7.614;2024-01-25T04:32:19;7.60;99.90
50570;DHT22;36525;49.398;7.614;2024-01-25T04:34:46;7.60;99.90
50570;DHT22;36525;49.398;7.614;2024-01-25T04:37:14;7.50;99.90
50570;DHT22;36525;49.398;7.614;2024-01-25T04:39:42;7.50;99.90
50570;DHT22;36525;49.398;7.614;2024-01-25T04:42:09;7.50;99.90
50570;DHT22;36525;49.398;7.614;2024-01-25T04:44:36;7.40;99.90
50570;DHT22;36525;49.398;7.614;2024-01-25T04:47:03;7.40;99.90
50570;DHT22;36525;49.398;7.614;2024-01-25T04:49:30;7.30;99.90
50570;DHT22;36525;49.398;7.614;2024-01-25T04:51:57;7.30;99.90
50570;DHT22;36525;49.398;7.614;2024-01-25T04:54:24;7.30;99.90
50570;DHT22;36525;49.398;7.614;2024-01-25T04:56:51;7.30;99.90
50570;DHT22;36525;49.398;7.614;2024-01-25T04:59:18;7.30;99.90
50570;DHT22;36525;49.398;7.614;2024-01-25T05:01:44;7.20;99.90
50570;DHT22;36525;49.398;7.614;2024-01-25T05:04:11;7.30;99.90
50570;DHT22;36525;49.398;7.614;2024-01-25T05:06:38;7.20;99.90
50570;DHT22;36525;49.398;7.614;2024-01-25T05:09:05;7.20;99.90
50570;DHT22;36525;49.398;7.614;2024-01-25T05:11:40;7.30;99.90
50570;DHT22;36525;49.398;7.614;2024-01-25T05:14:07;7.20;99.90
50570;DHT22;36525;49.398;7.614;2024-01-25T05:16:34;7.20;99.90
50570;DHT22;36525;49.398;7.614;2024-01-25T05:19:02;7.20;99.90
50570;DHT22;36525;49.398;7.614;2024-01-25T05:21:29;7.20;99.90
50570;DHT22;36525;49.398;7.614;2024-01-25T05:23:56;7.20;99.90
50570;DHT22;36525;49.398;7.614;2024-01-25T05:26:23;7.10;99.90
50570;DHT22;36525;49.398;7.614;2024-01-25T05:28:50;7.10;99.90
50570;DHT22;36525;49.398;7.614;2024-01-25T05:31:17;7.00;99.90
50570;DHT22;36525;49.398;7.614;2024-01-25T05:33:43;7.00;99.90
50570;DHT22;36525;49.398;7.614;2024-01-25T05:36:11;7.00;99.90
50570;DHT22;36525;49.398;7.614;2024-01-25T05:38:40;7.10;99.90
50570;DHT22;36525;49.398;7.614;2024-01-25T05:41:07;7.10;99.90
50570;DHT22;36525;49.398;7.614;2024-01-25T05:43:34;7.10;99.90
50570;DHT22;36525;49.398;7.614;2024-01-25T05:46:01;7.20;99.90
50570;DHT22;36525;49.398;7.614;2024-01-25T05:48:30;7.30;99.90
50570;DHT22;36525;49.398;7.614;2024-01-25T05:50:57;7.30;99.90
50570;DHT22;36525;49.398;7.614;2024-01-25T05:53:24;7.40;99.90
50570;DHT22;36525;49.398;7.614;2024-01-25T05:55:52;7.40;99.90
50570;DHT22;36525;49.398;7.614;2024-01-25T05:58:19;7.40;99.90
50570;DHT22;36525;49.398;7.614;2024-01-25T06:00:46;7.40;99.90
50570;DHT22;36525;49.398;7.614;2024-01-25T06:03:13;7.40;99.90
50570;DHT22;36525;49.398;7.614;2024-01-25T06:05:40;7.30;99.90
50570;DHT22;36525;49.398;7.614;2024-01-25T06:08:07;7.30;99.90
50570;DHT22;36525;49.398;7.614;2024-01-25T06:10:34;7.10;99.90
50570;DHT22;36525;49.398;7.614;2024-01-25T06:13:01;6.90;99.90
50570;DHT22;36525;49.398;7.614;2024-01-25T06:15:29;6.80;99.90
50570;DHT22;36525;49.398;7.614;2024-01-25T06:17:55;6.50;99.90
50570;DHT22;36525;49.398;7.614;2024-01-25T06:20:22;6.40;99.90
50570;DHT22;36525;49.398;7.614;2024-01-25T06:22:50;6.30;99.90
50570;DHT22;36525;49.398;7.614;2024-01-25T06:25:17;6.30;99.90
50570;DHT22;36525;49.398;7.614;2024-01-25T06:27:43;6.10;99.90
50570;DHT22;36525;49.398;7.614;2024-01-25T06:30:11;6.00;99.90
50570;DHT22;36525;49.398;7.614;2024-01-25T06:32:38;6.00;99.90
50570;DHT22;36525;49.398;7.614;2024-01-25T06:35:05;6.00;99.90
50570;DHT22;36525;49.398;7.614;2024-01-25T06:37:32;5.90;99.90
50570;DHT22;36525;49.398;7.614;2024-01-25T06:40:00;5.90;99.90
50570;DHT22;36525;49.398;7.614;2024-01-25T06:42:26;5.90;99.90
50570;DHT22;36525;49.398;7.614;2024-01-25T06:44:53;5.90;99.90
50570;DHT22;36525;49.398;7.614;2024-01-25T06:47:20;5.90;99.90
50570;DHT22;36525;49.398;7.614;2024-01-25T06:49:49;5.90;99.90
50570;DHT22;36525;49.398;7.614;2024-01-25T06:52:18;5.90;99.90
50570;DHT22;36525;49.398;7.614;2024-01-25T06:54:46;5.90;99.90
50570;DHT22;36525;49.398;7.614;2024-01-25T06:57:13;5.90;99.90
50570;DHT22;36525;49.398;7.614;2024-01-25T06:59:40;5.90;99.90
50570;DHT22;36525;49.398;7.614;2024-01-25T07:02:08;5.90;99.90
50570;DHT22;36525;49.398;7.614;2024-01-25T07:04:36;5.80;99.90
50570;DHT22;36525;49.398;7.614;2024-01-25T07:07:05;5.60;99.90
50570;DHT22;36525;49.398;7.614;2024-01-25T07:09:32;5.60;99.90
50570;DHT22;36525;49.398;7.614;2024-01-25T07:11:59;5.60;99.90
50570;DHT22;36525;49.398;7.614;2024-01-25T07:14:25;5.60;99.90
50570;DHT22;36525;49.398;7.614;2024-01-25T07:16:53;5.60;99.90
50570;DHT22;36525;49.398;7.614;2024-01-25T07:19:19;5.60;99.90
50570;DHT22;36525;49.398;7.614;2024-01-25T07:21:46;5.60;99.90
50570;DHT22;36525;49.398;7.614;2024-01-25T07:24:13;5.60;99.90
50570;DHT22;36525;49.398;7.614;2024-01-25T07:26:40;5.60;99.90
50570;DHT22;36525;49.398;7.614;2024-01-25T07:29:07;5.50;99.90
50570;DHT22;36525;49.398;7.614;2024-01-25T07:31:34;5.30;99.90
50570;DHT22;36525;49.398;7.614;2024-01-25T07:34:01;5.30;99.90
50570;DHT22;36525;49.398;7.614;2024-01-25T07:36:28;5.20;99.90
50570;DHT22;36525;49.398;7.614;2024-01-25T07:38:55;5.10;99.90
50570;DHT22;36525;49.398;7.614;2024-01-25T07:41:23;4.90;99.90
50570;DHT22;36525;49.398;7.614;2024-01-25T07:43:50;4.70;99.90
50570;DHT22;36525;49.398;7.614;2024-01-25T07:46:21;4.70;99.90
50570;DHT22;36525;49.398;7.614;2024-01-25T07:48:50;4.70;99.90
50570;DHT22;36525;49.398;7.614;2024-01-25T07:51:18;4.80;99.90
50570;DHT22;36525;49.398;7.614;2024-01-25T07:53:45;4.90;99.90
50570;DHT22;36525;49.398;7.614;2024-01-25T07:56:12;5.00;99.90
50570;DHT22;36525;49.398;7.614;2024-01-25T07:58:40;5.10;99.90
50570;DHT22;36525;49.398;7.614;2024-01-25T08:01:07;5.10;99.90
50570;DHT22;36525;49.398;7.614;2024-01-25T08:03:34;5.30;99.90
50570;DHT22;36525;49.398;7.614;2024-01-25T08:06:01;5.40;99.90
50570;DHT22;36525;49.398;7.614;2024-01-25T08:08:29;5.50;99.90
50570;DHT22;36525;49.398;7.614;2024-01-25T08:10:56;5.60;99.90
50570;DHT22;36525;49.398;7.614;2024-01-25T08:13:25;5.70;99.90
50570;DHT22;36525;49.398;7.614;2024-01-25T08:15:58;5.70;99.90
50570;DHT22;36525;49.398;7.614;2024-01-25T08:18:25;5.80;99.90
50570;DHT22;36525;49.398;7.614;2024-01-25T08:20:55;5.80;99.90
50570;DHT22;36525;49.398;7.614;2024-01-25T08:23:23;5.90;99.90
50570;DHT22;36525;49.398;7.614;2024-01-25T08:25:50;5.90;99.90
50570;DHT22;36525;49.398;7.614;2024-01-25T08:28:16;6.00;99.90
50570;DHT22;36525;49.398;7.614;2024-01-25T08:30:43;6.00;99.90
50570;DHT22;36525;49.398;7.614;2024-01-25T08:33:11;6.10;99.90
50570;DHT22;36525;49.398;7.614;2024-01-25T08:35:38;6.20;99.90
50570;DHT22;36525;49.398;7.614;2024-01-25T08:38:07;6.20;99.90
50570;DHT22;36525;49.398;7.614;2024-01-25T08:40:34;6.20;99.90
50570;DHT22;36525;49.398;7.614;2024-01-25T08:43:01;6.30;99.90
50570;DHT22;36525;49.398;7.614;2024-01-25T08:45:28;6.30;99.90
50570;DHT22;36525;49.398;7.614;2024-01-25T08:47:55;6.40;99.90
50570;DHT22;36525;49.398;7.614;2024-01-25T08:50:22;6.40;99.90
50570;DHT22;36525;49.398;7.614;2024-01-25T08:52:52;6.50;99.90
50570;DHT22;36525;49.398;7.614;2024-01-25T08:55:19;6.50;99.90
50570;DHT22;36525;49.398;7.614;2024-01-25T08:57:47;6.60;99.90
50570;DHT22;36525;49.398;7.614;2024-01-25T09:00:15;6.60;99.90
50570;DHT22;36525;49.398;7.614;2024-01-25T09:02:41;6.70;99.90
50570;DHT22;36525;49.398;7.614;2024-01-25T09:05:09;6.70;99.90
50570;DHT22;36525;49.398;7.614;2024-01-25T09:07:36;6.80;99.90
50570;DHT22;36525;49.398;7.614;2024-01-25T09:10:04;6.80;99.90
50570;DHT22;36525;49.398;7.614;2024-01-25T09:12:31;6.80;99.90
50570;DHT22;36525;49.398;7.614;2024-01-25T09:14:59;6.90;99.90
50570;DHT22;36525;49.398;7.614;2024-01-25T09:17:26;6.90;99.90
50570;DHT22;36525;49.398;7.614;2024-01-25T09:19:53;6.90;99.90
50570;DHT22;36525;49.398;7.614;2024-01-25T09:22:21;7.00;99.90
50570;DHT22;36525;49.398;7.614;2024-01-25T09:24:48;7.00;99.90
50570;DHT22;36525;49.398;7.614;2024-01-25T09:27:15;7.10;99.90
50570;DHT22;36525;49.398;7.614;2024-01-25T09:29:42;7.20;99.90
50570;DHT22;36525;49.398;7.614;2024-01-25T09:32:09;7.30;99.90
50570;DHT22;36525;49.398;7.614;2024-01-25T09:34:37;7.20;99.90
50570;DHT22;36525;49.398;7.614;2024-01-25T09:37:06;7.30;99.90
50570;DHT22;36525;49.398;7.614;2024-01-25T09:39:34;7.30;99.90
50570;DHT22;36525;49.398;7.614;2024-01-25T09:42:03;7.40;99.90
50570;DHT22;36525;49.398;7.614;2024-01-25T09:44:30;7.40;99.90
50570;DHT22;36525;49.398;7.614;2024-01-25T09:46:57;7.50;99.90
50570;DHT22;36525;49.398;7.614;2024-01-25T09:49:25;7.60;99.90
50570;DHT22;36525;49.398;7.614;2024-01-25T09:51:52;7.50;99.90
50570;DHT22;36525;49.398;7.614;2024-01-25T09:54:19;7.50;99.90
50570;DHT22;36525;49.398;7.614;2024-01-25T09:56:46;7.60;99.90
50570;DHT22;36525;49.398;7.614;2024-01-25T09:59:17;7.80;99.90
50570;DHT22;36525;49.398;7.614;2024-01-25T10:01:45;7.80;99.90
50570;DHT22;36525;49.398;7.614;2024-01-25T10:04:13;7.80;99.90
50570;DHT22;36525;49.398;7.614;2024-01-25T10:06:40;7.80;99.90
50570;DHT22;36525;49.398;7.614;2024-01-25T10:09:07;7.90;99.90
50570;DHT22;36525;49.398;7.614;2024-01-25T10:11:36;8.10;99.90
50570;DHT22;36525;49.398;7.614;2024-01-25T10:14:10;8.20;99.90
50570;DHT22;36525;49.398;7.614;2024-01-25T10:16:38;8.30;99.90
50570;DHT22;36525;49.398;7.614;2024-01-25T10:19:08;8.40;99.90
50570;DHT22;36525;49.398;7.614;2024-01-25T10:21:36;8.30;99.90
50570;DHT22;36525;49.398;7.614;2024-01-25T10:24:07;8.40;99.90
50570;DHT22;36525;49.398;7.614;2024-01-25T10:26:35;8.40;99.90
50570;DHT22;36525;49.398;7.614;2024-01-25T10:29:02;8.50;99.90
50570;DHT22;36525;49.398;7.614;2024-01-25T10:31:29;8.50;99.90
50570;DHT22;36525;49.398;7.614;2024-01-25T10:33:59;8.50;99.90
50570;DHT22;36525;49.398;7.614;2024-01-25T10:36:26;8.70;99.90
50570;DHT22;36525;49.398;7.614;2024-01-25T10:38:54;8.70;99.90
50570;DHT22;36525;49.398;7.614;2024-01-25T10:41:21;8.80;99.90
50570;DHT22;36525;49.398;7.614;2024-01-25T10:43:54;8.90;99.90
50570;DHT22;36525;49.398;7.614;2024-01-25T10:46:20;8.90;99.90
50570;DHT22;36525;49.398;7.614;2024-01-25T10:48:47;8.90;99.90
50570;DHT22;36525;49.398;7.614;2024-01-25T10:51:14;8.80;99.90
50570;DHT22;36525;49.398;7.614;2024-01-25T10:53:45;8.90;99.90
50570;DHT22;36525;49.398;7.614;2024-01-25T10:56:12;8.80;99.90
50570;DHT22;36525;49.398;7.614;2024-01-25T10:58:40;8.80;99.90
50570;DHT22;36525;49.398;7.614;2024-01-25T11:01:09;8.80;99.90
50570;DHT22;36525;49.398;7.614;2024-01-25T11:03:42;8.80;99.90
50570;DHT22;36525;49.398;7.614;2024-01-25T11:06:10;8.80;99.90
50570;DHT22;36525;49.398;7.614;2024-01-25T11:08:38;8.80;99.90
50570;DHT22;36525;49.398;7.614;2024-01-25T11:11:06;8.80;99.90
50570;DHT22;36525;49.398;7.614;2024-01-25T11:13:40;8.80;99.90
50570;DHT22;36525;49.398;7.614;2024-01-25T11:16:15;8.90;99.90
50570;DHT22;36525;49.398;7.614;2024-01-25T11:18:50;8.80;99.90
50570;DHT22;36525;49.398;7.614;2024-01-25T11:21:22;8.90;99.90
50570;DHT22;36525;49.398;7.614;2024-01-25T11:24:02;8.90;99.90
50570;DHT22;36525;49.398;7.614;2024-01-25T11:26:32;8.90;99.90
50570;DHT22;36525;49.398;7.614;2024-01-25T11:28:59;9.10;99.90
50570;DHT22;36525;49.398;7.614;2024-01-25T11:31:27;9.20;99.90
50570;DHT22;36525;49.398;7.614;2024-01-25T11:33:59;9.20;99.90
50570;DHT22;36525;49.398;7.614;2024-01-25T11:36:27;9.40;99.90
50570;DHT22;36525;49.398;7.614;2024-01-25T11:38:54;9.50;99.90
50570;DHT22;36525;49.398;7.614;2024-01-25T11:41:22;9.50;99.90
50570;DHT22;36525;49.398;7.614;2024-01-25T11:43:49;9.20;99.90
50570;DHT22;36525;49.398;7.614;2024-01-25T11:46:16;9.10;99.90
50570;DHT22;36525;49.398;7.614;2024-01-25T11:48:43;9.10;99.90
50570;DHT22;36525;49.398;7.614;2024-01-25T11:51:11;9.10;99.90
50570;DHT22;36525;49.398;7.614;2024-01-25T11:53:38;9.20;99.90
50570;DHT22;36525;49.398;7.614;2024-01-25T11:56:06;9.30;99.90
50570;DHT22;36525;49.398;7.614;2024-01-25T11:58:38;9.50;99.90
50570;DHT22;36525;49.398;7.614;2024-01-25T12:01:08;9.50;99.90
50570;DHT22;36525;49.398;7.614;2024-01-25T12:03:36;9.50;99.90
50570;DHT22;36525;49.398;7.614;2024-01-25T12:06:04;9.50;99.90
50570;DHT22;36525;49.398;7.614;2024-01-25T12:08:32;9.60;99.90
50570;DHT22;36525;49.398;7.614;2024-01-25T12:11:05;9.80;99.90
50570;DHT22;36525;49.398;7.614;2024-01-25T12:13:34;9.80;99.90
50570;DHT22;36525;49.398;7.614;2024-01-25T12:16:02;9.90;99.90
50570;DHT22;36525;49.398;7.614;2024-01-25T12:18:30;10.00;99.90
50570;DHT22;36525;49.398;7.614;2024-01-25T12:20:59;10.00;99.90
50570;DHT22;36525;49.398;7.614;2024-01-25T12:26:00;9.90;99.90
50570;DHT22;36525;49.398;7.614;2024-01-25T12:28:32;9.90;99.90
50570;DHT22;36525;49.398;7.614;2024-01-25T12:31:00;9.90;99.90
50570;DHT22;36525;49.398;7.614;2024-01-25T12:33:27;9.80;99.90
50570;DHT22;36525;49.398;7.614;2024-01-25T12:35:55;9.80;99.90
50570;DHT22;36525;49.398;7.614;2024-01-25T12:38:22;9.80;99.90
50570;DHT22;36525;49.398;7.614;2024-01-25T12:40:51;9.80;99.90
50570;DHT22;36525;49.398;7.614;2024-01-25T12:43:18;9.80;99.90
50570;DHT22;36525;49.398;7.614;2024-01-25T12:45:46;9.90;99.90
50570;DHT22;36525;49.398;7.614;2024-01-25T12:48:15;9.80;99.90
50570;DHT22;36525;49.398;7.614;2024-01-25T12:50:42;9.70;99.90
50570;DHT22;36525;49.398;7.614;2024-01-25T12:53:12;9.80;99.90
50570;DHT22;36525;49.398;7.614;2024-01-25T12:55:39;10.00;99.90
50570;DHT22;36525;49.398;7.614;2024-01-25T12:58:06;10.10;99.90
50570;DHT22;36525;49.398;7.614;2024-01-25T13:00:33;10.20;99.90
50570;DHT22;36525;49.398;7.614;2024-01-25T13:03:00;10.30;99.90
50570;DHT22;36525;49.398;7.614;2024-01-25T13:05:30;10.60;99.90
50570;DHT22;36525;49.398;7.614;2024-01-25T13:08:01;10.70;99.90
50570;DHT22;36525;49.398;7.614;2024-01-25T13:10:29;10.70;99.90
50570;DHT22;36525;49.398;7.614;2024-01-25T13:12:59;10.60;99.90
50570;DHT22;36525;49.398;7.614;2024-01-25T13:15:26;10.70;99.90
50570;DHT22;36525;49.398;7.614;2024-01-25T13:17:53;10.60;99.90
50570;DHT22;36525;49.398;7.614;2024-01-25T13:20:20;10.60;99.90
50570;DHT22;36525;49.398;7.614;2024-01-25T13:22:47;10.60;99.90
50570;DHT22;36525;49.398;7.614;2024-01-25T13:25:14;10.40;99.90
50570;DHT22;36525;49.398;7.614;2024-01-25T13:27:41;10.40;99.90
50570;DHT22;36525;49.398;7.614;2024-01-25T13:30:08;10.50;99.90
50570;DHT22;36525;49.398;7.614;2024-01-25T13:32:38;10.50;99.90
50570;DHT22;36525;49.398;7.614;2024-01-25T13:35:05;10.50;99.90
50570;DHT22;36525;49.398;7.614;2024-01-25T13:37:33;10.40;99.90
50570;DHT22;36525;49.398;7.614;2024-01-25T13:39:59;10.30;99.90
50570;DHT22;36525;49.398;7.614;2024-01-25T13:42:26;10.10;99.90
50570;DHT22;36525;49.398;7.614;2024-01-25T13:44:53;10.10;99.90
50570;DHT22;36525;49.398;7.614;2024-01-25T13:47:20;10.10;99.90
50570;DHT22;36525;49.398;7.614;2024-01-25T13:49:47;10.00;99.90
50570;DHT22;36525;49.398;7.614;2024-01-25T13:52:16;9.80;99.90
50570;DHT22;36525;49.398;7.614;2024-01-25T13:54:46;9.80;99.90
50570;DHT22;36525;49.398;7.614;2024-01-25T13:57:16;9.90;99.90
50570;DHT22;36525;49.398;7.614;2024-01-25T13:59:43;9.80;99.90
50570;DHT22;36525;49.398;7.614;2024-01-25T14:02:09;9.80;99.90
50570;DHT22;36525;49.398;7.614;2024-01-25T14:04:37;9.70;99.90
50570;DHT22;36525;49.398;7.614;2024-01-25T14:07:05;9.70;99.90
50570;DHT22;36525;49.398;7.614;2024-01-25T14:09:32;9.60;99.90
50570;DHT22;36525;49.398;7.614;2024-01-25T14:11:59;9.50;99.90
50570;DHT22;36525;49.398;7.614;2024-01-25T14:14:26;9.40;99.90
50570;DHT22;36525;49.398;7.614;2024-01-25T14:16:54;9.30;99.90
50570;DHT22;36525;49.398;7.614;2024-01-25T14:19:20;9.10;99.90
50570;DHT22;36525;49.398;7.614;2024-01-25T14:21:48;9.10;99.90
50570;DHT22;36525;49.398;7.614;2024-01-25T14:24:20;9.00;99.90
50570;DHT22;36525;49.398;7.614;2024-01-25T14:26:47;9.00;99.90
50570;DHT22;36525;49.398;7.614;2024-01-25T14:29:14;8.90;99.90
50570;DHT22;36525;49.398;7.614;2024-01-25T14:31:42;8.90;99.90
50570;DHT22;36525;49.398;7.614;2024-01-25T14:34:09;8.80;99.90
50570;DHT22;36525;49.398;7.614;2024-01-25T14:36:36;8.80;99.90
50570;DHT22;36525;49.398;7.614;2024-01-25T14:39:03;8.80;99.90
50570;DHT22;36525;49.398;7.614;2024-01-25T14:41:30;8.70;99.90
50570;DHT22;36525;49.398;7.614;2024-01-25T14:43:58;8.70;99.90
50570;DHT22;36525;49.398;7.614;2024-01-25T14:46:25;8.70;99.90
50570;DHT22;36525;49.398;7.614;2024-01-25T14:48:52;8.70;99.90
50570;DHT22;36525;49.398;7.614;2024-01-25T14:51:20;8.80;99.90
50570;DHT22;36525;49.398;7.614;2024-01-25T14:53:46;8.80;99.90
50570;DHT22;36525;49.398;7.614;2024-01-25T14:56:13;8.80;99.90
50570;DHT22;36525;49.398;7.614;2024-01-25T14:58:41;8.90;99.90
50570;DHT22;36525;49.398;7.614;2024-01-25T15:01:07;8.80;99.90
50570;DHT22;36525;49.398;7.614;2024-01-25T15:03:34;8.80;99.90
50570;DHT22;36525;49.398;7.614;2024-01-25T15:06:01;8.80;99.90
50570;DHT22;36525;49.398;7.614;2024-01-25T15:08:28;8.80;99.90
50570;DHT22;36525;49.398;7.614;2024-01-25T15:10:55;8.70;99.90
50570;DHT22;36525;49.398;7.614;2024-01-25T15:13:22;8.70;99.90
50570;DHT22;36525;49.398;7.614;2024-01-25T15:15:49;8.70;99.90
50570;DHT22;36525;49.398;7.614;2024-01-25T15:18:16;8.70;99.90
50570;DHT22;36525;49.398;7.614;2024-01-25T15:20:44;8.70;99.90
50570;DHT22;36525;49.398;7.614;2024-01-25T15:23:11;8.80;99.90
50570;DHT22;36525;49.398;7.614;2024-01-25T15:25:38;8.70;99.90
50570;DHT22;36525;49.398;7.614;2024-01-25T15:28:05;8.70;99.90
50570;DHT22;36525;49.398;7.614;2024-01-25T15:30:33;8.60;99.90
50570;DHT22;36525;49.398;7.614;2024-01-25T15:33:00;8.60;99.90
50570;DHT22;36525;49.398;7.614;2024-01-25T15:35:28;8.60;99.90
50570;DHT22;36525;49.398;7.614;2024-01-25T15:37:56;8.50;99.90
50570;DHT22;36525;49.398;7.614;2024-01-25T15:40:22;8.50;99.90
50570;DHT22;36525;49.398;7.614;2024-01-25T15:42:50;8.50;99.90
50570;DHT22;36525;49.398;7.614;2024-01-25T15:45:19;8.50;99.90
50570;DHT22;36525;49.398;7.614;2024-01-25T15:47:46;8.40;99.90
50570;DHT22;36525;49.398;7.614;2024-01-25T15:50:13;8.40;99.90